M/V Annette Cenac — WDC4233 — position and weather

sailwx.info

Track history (hours):
 
Tides and Currents Weather Stations Pressure Air Temp Water Temp Dewpoint Dewpoint Depression Visibility Wind Speed Wind Dir Waves Ship Positions

M/V Annette Cenac

Owner: Caillou Island Towing, Inc, Houma, LA. More information available from US FCC via Universal Licensing System and Coast Guard Vessel Documentation Center.

Last reported at 2017-Dec-11 14:34 UTC. Time now 2017-Dec-13 13:06 UTC.
Position N 29°33' W 090°26'.

Length 20 m; draft 3 m.

Type: Tug. MMSI: 367021310.

Date/timePositionNaut miles runAvg speedWind from/ knotsBaromVisibWave heightAir tempDewpointWater temp
2017-Dec-11 14:34N 29°33' W 090°26'1 6.4
2017-Dec-11 14:28N 29°33' W 090°27'3 6.3
2017-Dec-11 14:00N 29°34' W 090°30'3 6.2
2017-Dec-11 13:30N 29°34' W 090°34'3 5.9
2017-Dec-11 13:01N 29°35' W 090°37'3 5.6
2017-Dec-11 12:30N 29°36' W 090°40'2 3.3
2017-Dec-11 12:01N 29°37' W 090°42'0 0.0
2017-Dec-11 11:31N 29°37' W 090°42'0 0.0
2017-Dec-11 11:01N 29°37' W 090°42'0 0.0
2017-Dec-11 10:30N 29°37' W 090°42'0 0.0
2017-Dec-11 10:01N 29°37' W 090°42'0 0.0
2017-Dec-11 09:31N 29°37' W 090°42'0 0.0
2017-Dec-11 09:01N 29°37' W 090°42'0 0.0
2017-Dec-11 08:31N 29°37' W 090°42'0 0.0
2017-Dec-11 08:01N 29°37' W 090°42'0 0.0
2017-Dec-11 07:31N 29°37' W 090°42'0 0.0
2017-Dec-11 07:01N 29°37' W 090°42'0 0.0
2017-Dec-11 06:31N 29°37' W 090°42'0 0.0
2017-Dec-11 06:01N 29°37' W 090°42'0 0.0
2017-Dec-11 05:31N 29°37' W 090°42'0 0.0
2017-Dec-11 05:01N 29°37' W 090°42'0 0.0
2017-Dec-11 04:31N 29°37' W 090°42'0 0.0
2017-Dec-11 04:01N 29°37' W 090°42'0 0.0
2017-Dec-11 03:31N 29°37' W 090°42'0 0.0
2017-Dec-11 03:01N 29°37' W 090°42'1 2.8
2017-Dec-11 02:31N 29°36' W 090°43'2 4.0
2017-Dec-11 02:01N 29°34' W 090°43'1 1.3
2017-Dec-11 01:31N 29°34' W 090°43'0 0.0
2017-Dec-11 01:01N 29°34' W 090°43'0 0.0
2017-Dec-11 00:31N 29°34' W 090°43'1 1.0
2017-Dec-11 00:01N 29°34' W 090°42'0 0.1
2017-Dec-10 23:31N 29°34' W 090°42'0 0.5
2017-Dec-10 23:01N 29°34' W 090°42'0 0.4
2017-Dec-10 22:30N 29°34' W 090°42'0 0.8
2017-Dec-10 22:01N 29°34' W 090°43'0 0.0
2017-Dec-10 21:31N 29°34' W 090°43'0 0.4
2017-Dec-10 21:01N 29°34' W 090°43'0 0.0
2017-Dec-10 20:31N 29°34' W 090°43'0 0.0
2017-Dec-10 20:01N 29°34' W 090°43'0 0.0
2017-Dec-10 19:31N 29°34' W 090°43'0 0.0
2017-Dec-10 19:01N 29°34' W 090°43'0 0.0
2017-Dec-10 18:31N 29°34' W 090°43'0 0.0
2017-Dec-10 18:00N 29°34' W 090°43'0 1.0
2017-Dec-10 17:31N 29°34' W 090°42'1 2.0
2017-Dec-10 17:00N 29°35' W 090°43'2 4.5
2017-Dec-10 16:31N 29°37' W 090°42'2 4.5
2017-Dec-10 16:00N 29°36' W 090°40'0 0.2
2017-Dec-10 15:30N 29°36' W 090°40'0 0.0
2017-Dec-10 15:01N 29°36' W 090°40'0 0.0
2017-Dec-10 09:41N 29°36' W 090°40'0 0.0
2017-Dec-10 08:37N 29°36' W 090°40'0 0.0
2017-Dec-10 08:30N 29°36' W 090°40'0 0.0
2017-Dec-10 08:00N 29°36' W 090°40'0 0.0
2017-Dec-10 07:29N 29°36' W 090°40'0 0.0
2017-Dec-10 07:00N 29°36' W 090°40'0 0.0
2017-Dec-10 06:30N 29°36' W 090°40'1 1.3
2017-Dec-10 06:00N 29°36' W 090°39'2 4.0
2017-Dec-10 05:30N 29°35' W 090°37'2 3.9
2017-Dec-10 05:00N 29°34' W 090°35'2 4.2
2017-Dec-10 04:30N 29°34' W 090°33'2 4.3
2017-Dec-10 03:59N 29°34' W 090°30'  
2017-Dec-02 13:46N 29°34' W 090°28'2 7.0
2017-Dec-02 13:29N 29°34' W 090°31'3 6.8
2017-Dec-02 13:00N 29°34' W 090°34'1 2.1
2017-Dec-02 12:30N 29°35' W 090°36'0 0.0
2017-Dec-02 12:00N 29°35' W 090°36'0 0.0
2017-Dec-02 11:29N 29°35' W 090°36'0 0.0
2017-Dec-02 11:00N 29°35' W 090°36'0 0.0
2017-Dec-02 10:30N 29°35' W 090°36'0 0.0
2017-Dec-02 10:00N 29°35' W 090°36'0 0.0
2017-Dec-02 09:28N 29°35' W 090°36'0 0.0
2017-Dec-02 09:00N 29°35' W 090°36'0 0.0
2017-Dec-02 08:30N 29°35' W 090°36'0 0.0
2017-Dec-02 08:00N 29°35' W 090°36'0 0.0
2017-Dec-02 06:57N 29°35' W 090°36'0 0.1
2017-Dec-02 06:30N 29°35' W 090°36'1 2.6
2017-Dec-02 06:00N 29°35' W 090°37'3 5.4
2017-Dec-02 05:30N 29°36' W 090°40'0 0.0
2017-Dec-02 04:41N 29°36' W 090°40'0 0.6
2017-Dec-02 04:30N 29°36' W 090°40'2 5.0
2017-Dec-02 04:01N 29°37' W 090°42'3 5.4
2017-Dec-02 03:31N 29°34' W 090°43'2 4.4
2017-Dec-02 03:01N 29°33' W 090°45'3 6.2
2017-Dec-02 02:30N 29°32' W 090°49'3 5.9
2017-Dec-02 01:54N 29°32' W 090°53'  
Track history (hours):
 
Tides and Currents Weather Stations Pressure Air Temp Water Temp Dewpoint Dewpoint Depression Visibility Wind Speed Wind Dir Waves Ship Positions

M/V Annette Cenac

Owner: Caillou Island Towing, Inc, Houma, LA. More information available from US FCC via Universal Licensing System and Coast Guard Vessel Documentation Center.

Last reported at 2017-Dec-11 14:34 UTC. Time now 2017-Dec-13 13:06 UTC.
Position N 29°33' W 090°26'.

Length 20 m; draft 3 m.

Type: Tug. MMSI: 367021310.

Date/timePositionNaut miles runAvg speedWind from/ knotsBaromVisibWave heightAir tempDewpointWater temp
2017-Dec-11 14:34N 29°33' W 090°26'1 6.4
2017-Dec-11 14:28N 29°33' W 090°27'3 6.3
2017-Dec-11 14:00N 29°34' W 090°30'3 6.2
2017-Dec-11 13:30N 29°34' W 090°34'3 5.9
2017-Dec-11 13:01N 29°35' W 090°37'3 5.6
2017-Dec-11 12:30N 29°36' W 090°40'2 3.3
2017-Dec-11 12:01N 29°37' W 090°42'0 0.0
2017-Dec-11 11:31N 29°37' W 090°42'0 0.0
2017-Dec-11 11:01N 29°37' W 090°42'0 0.0
2017-Dec-11 10:30N 29°37' W 090°42'0 0.0
2017-Dec-11 10:01N 29°37' W 090°42'0 0.0
2017-Dec-11 09:31N 29°37' W 090°42'0 0.0
2017-Dec-11 09:01N 29°37' W 090°42'0 0.0
2017-Dec-11 08:31N 29°37' W 090°42'0 0.0
2017-Dec-11 08:01N 29°37' W 090°42'0 0.0
2017-Dec-11 07:31N 29°37' W 090°42'0 0.0
2017-Dec-11 07:01N 29°37' W 090°42'0 0.0
2017-Dec-11 06:31N 29°37' W 090°42'0 0.0
2017-Dec-11 06:01N 29°37' W 090°42'0 0.0
2017-Dec-11 05:31N 29°37' W 090°42'0 0.0
2017-Dec-11 05:01N 29°37' W 090°42'0 0.0
2017-Dec-11 04:31N 29°37' W 090°42'0 0.0
2017-Dec-11 04:01N 29°37' W 090°42'0 0.0
2017-Dec-11 03:31N 29°37' W 090°42'0 0.0
2017-Dec-11 03:01N 29°37' W 090°42'1 2.8
2017-Dec-11 02:31N 29°36' W 090°43'2 4.0
2017-Dec-11 02:01N 29°34' W 090°43'1 1.3
2017-Dec-11 01:31N 29°34' W 090°43'0 0.0
2017-Dec-11 01:01N 29°34' W 090°43'0 0.0
2017-Dec-11 00:31N 29°34' W 090°43'1 1.0
2017-Dec-11 00:01N 29°34' W 090°42'0 0.1
2017-Dec-10 23:31N 29°34' W 090°42'0 0.5
2017-Dec-10 23:01N 29°34' W 090°42'0 0.4
2017-Dec-10 22:30N 29°34' W 090°42'0 0.8
2017-Dec-10 22:01N 29°34' W 090°43'0 0.0
2017-Dec-10 21:31N 29°34' W 090°43'0 0.4
2017-Dec-10 21:01N 29°34' W 090°43'0 0.0
2017-Dec-10 20:31N 29°34' W 090°43'0 0.0
2017-Dec-10 20:01N 29°34' W 090°43'0 0.0
2017-Dec-10 19:31N 29°34' W 090°43'0 0.0
2017-Dec-10 19:01N 29°34' W 090°43'0 0.0
2017-Dec-10 18:31N 29°34' W 090°43'0 0.0
2017-Dec-10 18:00N 29°34' W 090°43'0 1.0
2017-Dec-10 17:31N 29°34' W 090°42'1 2.0
2017-Dec-10 17:00N 29°35' W 090°43'2 4.5
2017-Dec-10 16:31N 29°37' W 090°42'2 4.5
2017-Dec-10 16:00N 29°36' W 090°40'0 0.2
2017-Dec-10 15:30N 29°36' W 090°40'0 0.0
2017-Dec-10 15:01N 29°36' W 090°40'0 0.0
2017-Dec-10 09:41N 29°36' W 090°40'0 0.0
2017-Dec-10 08:37N 29°36' W 090°40'0 0.0
2017-Dec-10 08:30N 29°36' W 090°40'0 0.0
2017-Dec-10 08:00N 29°36' W 090°40'0 0.0
2017-Dec-10 07:29N 29°36' W 090°40'0 0.0
2017-Dec-10 07:00N 29°36' W 090°40'0 0.0
2017-Dec-10 06:30N 29°36' W 090°40'1 1.3
2017-Dec-10 06:00N 29°36' W 090°39'2 4.0
2017-Dec-10 05:30N 29°35' W 090°37'2 3.9
2017-Dec-10 05:00N 29°34' W 090°35'2 4.2
2017-Dec-10 04:30N 29°34' W 090°33'2 4.3
2017-Dec-10 03:59N 29°34' W 090°30'  
2017-Dec-02 13:46N 29°34' W 090°28'2 7.0
2017-Dec-02 13:29N 29°34' W 090°31'3 6.8
2017-Dec-02 13:00N 29°34' W 090°34'1 2.1
2017-Dec-02 12:30N 29°35' W 090°36'0 0.0
2017-Dec-02 12:00N 29°35' W 090°36'0 0.0
2017-Dec-02 11:29N 29°35' W 090°36'0 0.0
2017-Dec-02 11:00N 29°35' W 090°36'0 0.0
2017-Dec-02 10:30N 29°35' W 090°36'0 0.0
2017-Dec-02 10:00N 29°35' W 090°36'0 0.0
2017-Dec-02 09:28N 29°35' W 090°36'0 0.0
2017-Dec-02 09:00N 29°35' W 090°36'0 0.0
2017-Dec-02 08:30N 29°35' W 090°36'0 0.0
2017-Dec-02 08:00N 29°35' W 090°36'0 0.0
2017-Dec-02 06:57N 29°35' W 090°36'0 0.1
2017-Dec-02 06:30N 29°35' W 090°36'1 2.6
2017-Dec-02 06:00N 29°35' W 090°37'3 5.4
2017-Dec-02 05:30N 29°36' W 090°40'0 0.0
2017-Dec-02 04:41N 29°36' W 090°40'0 0.6
2017-Dec-02 04:30N 29°36' W 090°40'2 5.0
2017-Dec-02 04:01N 29°37' W 090°42'3 5.4
2017-Dec-02 03:31N 29°34' W 090°43'2 4.4
2017-Dec-02 03:01N 29°33' W 090°45'3 6.2
2017-Dec-02 02:30N 29°32' W 090°49'3 5.9
2017-Dec-02 01:54N 29°32' W 090°53'  

Dump ship's entire track history